No particular awareness of the weather is required.    There are no Weather-warnings


Meteo18 Weather Cam more information Meteo18 Weather Cam


Thunder radar more information blitzortung!


Rain radar more information rain snow radar


Visit our other weather sites:

Template documentation
and downloads

And another site



Weather Underground History page Text

Daily Summary for January 23, 2017 Units:  English    Metric   Both
« Previous Day
Next Day »
Daily Weekly Monthly Yearly Custom
  High: Low: Average:
Temperature: TemperatureC °F -3.0 °F -0.4 °F
Dew Point: DewpointC °F -5.1 °F -3.7 °F
Humidity: Humidity % 64 % 78 %
Wind Speed: WindSpeedKMH mph 0.0 mph 5 mph
Wind Gust: WindSpeedGustKMH mph - -
Wind:- - SSW
Pressure: PressurehPa in 1024.9 in -
Precipitation: 0.0 in    
Historical Graphs
 
 
Tabular Data for January 23, 2017
Time Temperature Dew Point Pressure Wind Wind Speed Wind Gust Humidity Rainfall Rate (Hourly)
TemperatureC °F DewpointC °F PressurehPa in Calm     Humidity % HourlyPrecipMM in
00:02 -0.3 °F -3.0 °F 1025.6 in Calm   6.4 mph 82 % 0.0 in
00:07 -0.2 °F -2.9 °F 1025.6 in North 1.6 mph 11.3 mph 82 % 0.0 in
00:12 -0.2 °F -2.9 °F 1025.6 in North 8.0 mph 11.3 mph 82 % 0.0 in
00:17 -0.2 °F -3.1 °F 1025.6 in Calm   11.3 mph 81 % 0.0 in
00:22 -0.2 °F -3.1 °F 1025.6 in Calm   11.3 mph 81 % 0.0 in
00:27 -0.2 °F -3.1 °F 1025.6 in NNE 4.8 mph 11.3 mph 81 % 0.0 in
00:32 -0.2 °F -3.2 °F 1025.6 in NE 6.4 mph 9.7 mph 80 % 0.0 in
00:37 -0.1 °F -3.1 °F 1025.6 in NE 8.0 mph 9.7 mph 80 % 0.0 in
00:42 0.0 °F -3.2 °F 1025.6 in ENE 8.0 mph 12.9 mph 79 % 0.0 in
00:47 -0.1 °F -3.1 °F 1025.6 in NE 3.2 mph 14.5 mph 80 % 0.0 in
00:52 -0.1 °F -3.1 °F 1025.3 in NNE 9.7 mph 14.5 mph 80 % 0.0 in
00:57 -0.1 °F -3.1 °F 1025.3 in NE 4.8 mph 14.5 mph 80 % 0.0 in
01:02 -0.2 °F -3.2 °F 1025.3 in NNE 9.7 mph 14.5 mph 80 % 0.0 in
01:07 -0.2 °F -3.2 °F 1025.3 in NNE 3.2 mph 14.5 mph 80 % 0.0 in
01:12 -0.3 °F -3.2 °F 1024.9 in NNE 8.0 mph 14.5 mph 81 % 0.0 in
01:17 -0.2 °F -3.2 °F 1024.9 in NE 8.0 mph 14.5 mph 80 % 0.0 in
01:22 -0.2 °F -3.2 °F 1024.9 in Calm   14.5 mph 80 % 0.0 in
01:27 -0.3 °F -3.3 °F 1025.3 in NNW 1.6 mph 14.5 mph 80 % 0.0 in
01:32 -0.3 °F -3.3 °F 1025.3 in Calm   14.5 mph 80 % 0.0 in
01:37 -0.3 °F -3.3 °F 1025.3 in NNE 1.6 mph 9.7 mph 80 % 0.0 in
01:42 -0.4 °F -3.4 °F 1025.3 in NNE 3.2 mph 9.7 mph 80 % 0.0 in
01:47 -0.5 °F -3.5 °F 1025.3 in NNW 1.6 mph 6.4 mph 80 % 0.0 in
01:52 -0.6 °F -3.6 °F 1024.9 in North 4.8 mph 6.4 mph 80 % 0.0 in
01:57 -0.5 °F -3.4 °F 1024.9 in NNW 6.4 mph 8.0 mph 81 % 0.0 in
02:02 -0.6 °F -3.6 °F 1025.3 in NNE 1.6 mph 8.0 mph 80 % 0.0 in
02:07 -0.7 °F -3.6 °F 1025.3 in NNW 1.6 mph 8.0 mph 81 % 0.0 in
02:12 -0.8 °F -3.7 °F 1024.9 in Calm   8.0 mph 81 % 0.0 in
02:17 -0.8 °F -3.7 °F 1024.9 in NW 1.6 mph 3.2 mph 81 % 0.0 in
02:22 -0.8 °F -3.7 °F 1024.9 in NNW 1.6 mph 3.2 mph 81 % 0.0 in
02:32 -0.7 °F -3.6 °F 1024.9 in NNW 1.6 mph 6.4 mph 81 % 0.0 in
02:37 -0.8 °F -3.7 °F 1024.9 in NNW 1.6 mph 6.4 mph 81 % 0.0 in
02:42 -0.8 °F -3.7 °F 1024.9 in Calm   6.4 mph 81 % 0.0 in
02:47 -0.8 °F -3.7 °F 1024.9 in NNW 1.6 mph 4.8 mph 81 % 0.0 in
02:52 -0.8 °F -3.7 °F 1024.9 in North 1.6 mph 4.8 mph 81 % 0.0 in
03:02 -1.0 °F -3.7 °F 1025.3 in Calm   4.8 mph 82 % 0.0 in
03:12 -1.1 °F -3.8 °F 1025.3 in NW 1.6 mph 1.6 mph 82 % 0.0 in
03:17 -0.9 °F -3.6 °F 1025.3 in Calm   3.2 mph 82 % 0.0 in
03:22 -0.9 °F -3.7 °F 1025.3 in Calm   3.2 mph 81 % 0.0 in
03:27 -0.9 °F -3.7 °F 1025.3 in NNW 1.6 mph 3.2 mph 81 % 0.0 in
03:32 -0.9 °F -3.7 °F 1025.3 in Calm   3.2 mph 81 % 0.0 in
03:37 -0.9 °F -3.7 °F 1025.3 in Calm   4.8 mph 81 % 0.0 in
03:42 -1.0 °F -3.8 °F 1025.3 in NNW 3.2 mph 4.8 mph 81 % 0.0 in
03:47 -0.9 °F -3.7 °F 1025.3 in North 1.6 mph 4.8 mph 81 % 0.0 in
03:52 -0.9 °F -3.9 °F 1025.3 in NNW 1.6 mph 4.8 mph 80 % 0.0 in
03:57 -0.9 °F -3.9 °F 1025.3 in NNW 3.2 mph 6.4 mph 80 % 0.0 in
04:02 -0.9 °F -3.9 °F 1025.3 in Calm   6.4 mph 80 % 0.0 in
04:07 -1.1 °F -4.1 °F 1025.3 in North 1.6 mph 4.8 mph 80 % 0.0 in
04:12 -1.2 °F -4.0 °F 1025.3 in NW 1.6 mph 4.8 mph 81 % 0.0 in
04:17 -1.3 °F -4.1 °F 1025.3 in Calm   6.4 mph 81 % 0.0 in
04:22 -1.3 °F -4.0 °F 1025.3 in NW 1.6 mph 6.4 mph 82 % 0.0 in
04:32 -1.3 °F -4.1 °F 1024.9 in WNW 3.2 mph 9.7 mph 81 % 0.0 in
04:37 -1.3 °F -4.1 °F 1025.3 in NNW 1.6 mph 11.3 mph 81 % 0.0 in
04:42 -1.2 °F -4.0 °F 1025.3 in North 6.4 mph 11.3 mph 81 % 0.0 in
04:47 -1.3 °F -4.1 °F 1025.3 in NE 4.8 mph 11.3 mph 81 % 0.0 in
04:52 -1.4 °F -4.2 °F 1025.3 in North 4.8 mph 11.3 mph 81 % 0.0 in
05:02 -1.4 °F -4.2 °F 1024.9 in North 3.2 mph 9.7 mph 81 % 0.0 in
05:07 -1.5 °F -4.3 °F 1024.9 in North 6.4 mph 11.3 mph 81 % 0.0 in
05:12 -1.6 °F -4.4 °F 1024.9 in North 8.0 mph 11.3 mph 81 % 0.0 in
05:17 -1.6 °F -4.4 °F 1024.9 in NW 3.2 mph 9.7 mph 81 % 0.0 in
05:22 -1.7 °F -4.5 °F 1024.9 in NNW 3.2 mph 9.7 mph 81 % 0.0 in
05:32 -1.8 °F -4.5 °F 1024.9 in NNW 4.8 mph 9.7 mph 82 % 0.0 in
05:37 -1.8 °F -4.5 °F 1024.9 in North 6.4 mph 9.7 mph 82 % 0.0 in
05:42 -1.8 °F -4.6 °F 1024.9 in NW 1.6 mph 9.7 mph 81 % 0.0 in
05:47 -1.7 °F -4.5 °F 1024.9 in North 1.6 mph 9.7 mph 81 % 0.0 in
05:52 -1.7 °F -4.5 °F 1024.9 in Calm   9.7 mph 81 % 0.0 in
05:57 -1.8 °F -4.6 °F 1024.9 in Calm   8.0 mph 81 % 0.0 in
06:02 -1.8 °F -4.6 °F 1025.3 in Calm   8.0 mph 81 % 0.0 in
06:07 -2.0 °F -4.8 °F 1025.3 in Calm   4.8 mph 81 % 0.0 in
06:12 -2.0 °F -4.8 °F 1025.3 in North 3.2 mph 4.8 mph 81 % 0.0 in
06:17 -2.0 °F -4.8 °F 1025.3 in NE 1.6 mph 3.2 mph 81 % 0.0 in
06:22 -2.1 °F -4.8 °F 1025.3 in NNW 1.6 mph 3.2 mph 82 % 0.0 in
06:32 -2.3 °F -5.0 °F 1025.3 in NW 1.6 mph 3.2 mph 82 % 0.0 in
06:42 -2.4 °F -5.1 °F 1025.3 in NNW 1.6 mph 4.8 mph 82 % 0.0 in
06:52 -2.5 °F -5.0 °F 1024.9 in NW 1.6 mph 4.8 mph 83 % 0.0 in
07:02 -2.7 °F -5.0 °F 1025.3 in NW 4.8 mph 6.4 mph 84 % 0.0 in
07:07 -2.7 °F -5.0 °F 1025.3 in NNW 4.8 mph 8.0 mph 84 % 0.0 in
07:12 -2.8 °F -5.0 °F 1025.3 in North 3.2 mph 8.0 mph 85 % 0.0 in
07:22 -2.8 °F -5.0 °F 1025.3 in Calm   11.3 mph 85 % 0.0 in
07:27 -2.8 °F -5.0 °F 1025.3 in NNW 4.8 mph 11.3 mph 85 % 0.0 in
07:32 -2.8 °F -5.0 °F 1025.3 in NNW 1.6 mph 11.3 mph 85 % 0.0 in
07:37 -2.9 °F -5.1 °F 1025.3 in Calm   8.0 mph 85 % 0.0 in
07:42 -2.9 °F -4.9 °F 1025.3 in NNE 4.8 mph 8.0 mph 86 % 0.0 in
07:52 -2.9 °F -4.9 °F 1025.3 in NNW 1.6 mph 8.0 mph 86 % 0.0 in
07:57 -2.9 °F -4.9 °F 1025.3 in NW 1.6 mph 8.0 mph 86 % 0.0 in
08:02 -2.8 °F -4.8 °F 1025.3 in NNE 4.8 mph 8.0 mph 86 % 0.0 in
08:07 -2.7 °F -4.7 °F 1025.3 in NNE 3.2 mph 11.3 mph 86 % 0.0 in
08:12 -2.7 °F -4.9 °F 1025.3 in NNW 1.6 mph 11.3 mph 85 % 0.0 in
08:17 -2.7 °F -4.9 °F 1025.6 in NNW 3.2 mph 11.3 mph 85 % 0.0 in
08:22 -2.7 °F -4.9 °F 1025.6 in WNW 1.6 mph 11.3 mph 85 % 0.0 in
08:32 -2.7 °F -4.9 °F 1025.6 in North 14.5 mph 14.5 mph 85 % 0.0 in
08:37 -2.8 °F -5.0 °F 1025.6 in North 6.4 mph 14.5 mph 85 % 0.0 in
08:42 -2.8 °F -5.0 °F 1025.6 in North 6.4 mph 14.5 mph 85 % 0.0 in
08:47 -2.9 °F -4.9 °F 1025.6 in NNW 1.6 mph 14.5 mph 86 % 0.0 in
08:52 -2.8 °F -4.8 °F 1025.6 in NNW 4.8 mph 14.5 mph 86 % 0.0 in
08:57 -2.9 °F -4.9 °F 1025.6 in NNW 1.6 mph 12.9 mph 86 % 0.0 in
09:02 -3.0 °F -5.0 °F 1025.6 in NNW 4.8 mph 12.9 mph 86 % 0.0 in
09:12 -2.7 °F -4.7 °F 1026.0 in North 1.6 mph 12.9 mph 86 % 0.0 in
09:17 -2.7 °F -4.7 °F 1026.0 in NW 1.6 mph 11.3 mph 86 % 0.0 in
09:22 -2.7 °F -4.7 °F 1026.0 in NNE 9.7 mph 11.3 mph 86 % 0.0 in
09:32 -2.4 °F -4.4 °F 1026.0 in NNE 8.0 mph 11.3 mph 86 % 0.0 in
09:37 -2.3 °F -4.3 °F 1026.0 in NNE 8.0 mph 12.9 mph 86 % 0.0 in
09:42 -2.2 °F -4.2 °F 1026.0 in North 4.8 mph 12.9 mph 86 % 0.0 in
09:47 -2.1 °F -4.3 °F 1026.0 in North 4.8 mph 12.9 mph 85 % 0.0 in
09:52 -2.0 °F -4.2 °F 1026.0 in NNW 6.4 mph 12.9 mph 85 % 0.0 in
09:57 -1.8 °F -4.1 °F 1026.0 in NNE 9.7 mph 12.9 mph 84 % 0.0 in
10:02 -1.7 °F -4.0 °F 1026.0 in NNW 4.8 mph 12.9 mph 84 % 0.0 in
10:07 -1.6 °F -4.1 °F 1026.0 in NE 3.2 mph 17.7 mph 83 % 0.0 in
10:12 -1.5 °F -4.0 °F 1026.0 in North 1.6 mph 17.7 mph 83 % 0.0 in
10:17 -1.3 °F -3.8 °F 1026.0 in NNE 1.6 mph 12.9 mph 83 % 0.0 in
10:22 -1.2 °F -3.9 °F 1026.0 in North 1.6 mph 12.9 mph 82 % 0.0 in
10:32 -0.8 °F -3.7 °F 1026.0 in NE 8.0 mph 8.0 mph 81 % 0.0 in
10:42 -0.6 °F -3.6 °F 1026.0 in NE 3.2 mph 16.1 mph 80 % 0.0 in
10:47 -0.6 °F -3.8 °F 1026.0 in NE 4.8 mph 17.7 mph 79 % 0.0 in
10:52 -0.4 °F -3.6 °F 1026.0 in North 8.0 mph 17.7 mph 79 % 0.0 in
10:57 -0.2 °F -3.4 °F 1026.0 in North 4.8 mph 19.3 mph 79 % 0.0 in
11:02 -0.1 °F -3.5 °F 1026.0 in North 4.8 mph 19.3 mph 78 % 0.0 in
11:07 0.1 °F -3.5 °F 1026.3 in North 9.7 mph 14.5 mph 77 % 0.0 in
11:12 0.1 °F -3.5 °F 1026.0 in NE 3.2 mph 14.5 mph 77 % 0.0 in
11:17 0.2 °F -3.2 °F 1026.0 in WNW 3.2 mph 14.5 mph 78 % 0.0 in
11:22 0.3 °F -3.3 °F 1026.3 in NE 11.3 mph 14.5 mph 77 % 0.0 in
11:27 0.4 °F -3.2 °F 1026.0 in NNE 4.8 mph 16.1 mph 77 % 0.0 in
11:32 0.4 °F -3.2 °F 1026.0 in North 9.7 mph 16.1 mph 77 % 0.0 in
11:37 0.6 °F -3.1 °F 1026.0 in North 8.0 mph 16.1 mph 76 % 0.0 in
11:42 0.7 °F -3.0 °F 1026.0 in North 6.4 mph 16.1 mph 76 % 0.0 in
11:47 0.9 °F -3.0 °F 1026.0 in NNW 3.2 mph 16.1 mph 75 % 0.0 in
11:52 1.1 °F -2.8 °F 1026.0 in North 8.0 mph 16.1 mph 75 % 0.0 in
11:57 1.2 °F -2.9 °F 1026.0 in NE 9.7 mph 12.9 mph 74 % 0.0 in
12:02 1.3 °F -2.8 °F 1026.0 in NE 3.2 mph 12.9 mph 74 % 0.0 in
12:07 1.4 °F -3.1 °F 1026.0 in NNW 9.7 mph 14.5 mph 72 % 0.0 in
12:12 1.6 °F -3.3 °F 1026.0 in NE 8.0 mph 14.5 mph 70 % 0.0 in
12:17 1.6 °F -3.5 °F 1026.0 in NE 11.3 mph 14.5 mph 69 % 0.0 in
12:22 1.7 °F -3.4 °F 1026.0 in ENE 1.6 mph 17.7 mph 69 % 0.0 in
12:27 1.8 °F -3.3 °F 1026.0 in NNW 4.8 mph 17.7 mph 69 % 0.0 in
12:32 1.8 °F -3.3 °F 1026.0 in NE 6.4 mph 17.7 mph 69 % 0.0 in
12:37 1.7 °F -3.6 °F 1026.0 in North 14.5 mph 17.7 mph 68 % 0.0 in
12:42 1.7 °F -3.6 °F 1026.0 in NNE 14.5 mph 19.3 mph 68 % 0.0 in
12:47 1.7 °F -3.4 °F 1025.6 in NE 12.9 mph 19.3 mph 69 % 0.0 in
12:52 1.7 °F -3.6 °F 1025.6 in NNE 12.9 mph 22.5 mph 68 % 0.0 in
13:02 1.8 °F -3.5 °F 1025.6 in NE 12.9 mph 22.5 mph 68 % 0.0 in
13:07 1.8 °F -3.1 °F 1025.6 in NNE 14.5 mph 22.5 mph 70 % 0.0 in
13:12 1.9 °F -3.0 °F 1025.3 in NNE 8.0 mph 22.5 mph 70 % 0.0 in
13:17 1.9 °F -2.8 °F 1025.3 in NNE 16.1 mph 24.1 mph 71 % 0.0 in
13:22 2.0 °F -2.9 °F 1025.3 in NNE 14.5 mph 24.1 mph 70 % 0.0 in
13:32 2.1 °F -3.2 °F 1025.3 in NNE 8.0 mph 24.1 mph 68 % 0.0 in
13:37 2.2 °F -2.7 °F 1025.3 in NNW 6.4 mph 19.3 mph 70 % 0.0 in
13:42 2.4 °F -2.5 °F 1024.9 in NE 11.3 mph 19.3 mph 70 % 0.0 in
13:47 2.6 °F -2.3 °F 1024.9 in North 4.8 mph 14.5 mph 70 % 0.0 in
13:52 2.6 °F -2.3 °F 1024.9 in NE 6.4 mph 14.5 mph 70 % 0.0 in
13:57 2.7 °F -2.6 °F 1024.9 in NE 9.7 mph 19.3 mph 68 % 0.0 in
14:02 2.7 °F -2.4 °F 1024.9 in North 8.0 mph 19.3 mph 69 % 0.0 in
14:07 2.7 °F -2.6 °F 1024.9 in NW 4.8 mph 16.1 mph 68 % 0.0 in
14:12 2.7 °F -2.8 °F 1024.9 in North 6.4 mph 16.1 mph 67 % 0.0 in
14:17 2.8 °F -2.3 °F 1024.9 in NE 6.4 mph 17.7 mph 69 % 0.0 in
14:22 2.8 °F -2.7 °F 1024.9 in North 9.7 mph 17.7 mph 67 % 0.0 in
14:32 3.0 °F -2.3 °F 1024.9 in NE 9.7 mph 19.3 mph 68 % 0.0 in
14:37 3.1 °F -2.4 °F 1024.9 in NNW 9.7 mph 19.3 mph 67 % 0.0 in
14:42 3.2 °F -2.5 °F 1024.9 in NW 4.8 mph 19.3 mph 66 % 0.0 in
14:52 3.2 °F -2.7 °F 1024.9 in North 11.3 mph 14.5 mph 65 % 0.0 in
14:57 3.2 °F -2.5 °F 1024.9 in North 4.8 mph 19.3 mph 66 % 0.0 in
15:02 3.2 °F -2.5 °F 1024.9 in NE 14.5 mph 19.3 mph 66 % 0.0 in
15:07 3.2 °F -2.5 °F 1024.9 in NNW 12.9 mph 17.7 mph 66 % 0.0 in
15:12 3.2 °F -2.7 °F 1024.9 in NNW 6.4 mph 17.7 mph 65 % 0.0 in
15:17 3.2 °F -2.7 °F 1024.9 in NNW 8.0 mph 17.7 mph 65 % 0.0 in
15:22 3.2 °F -2.7 °F 1024.9 in North 9.7 mph 17.7 mph 65 % 0.0 in
15:32 3.2 °F -2.7 °F 1024.9 in NNW 8.0 mph 20.9 mph 65 % 0.0 in
15:37 3.3 °F -2.7 °F 1024.9 in NE 4.8 mph 17.7 mph 65 % 0.0 in
15:42 3.2 °F -3.0 °F 1024.9 in NE 3.2 mph 17.7 mph 64 % 0.0 in
15:47 3.2 °F -2.7 °F 1024.9 in NE 4.8 mph 19.3 mph 65 % 0.0 in
15:52 3.2 °F -3.0 °F 1024.9 in North 4.8 mph 19.3 mph 64 % 0.0 in
15:57 3.2 °F -3.0 °F 1024.9 in North 4.8 mph 20.9 mph 64 % 0.0 in
16:02 3.2 °F -3.0 °F 1024.9 in NNW 4.8 mph 20.9 mph 64 % 0.0 in
16:07 3.2 °F -2.7 °F 1024.9 in NNE 12.9 mph 17.7 mph 65 % 0.0 in
16:12 3.2 °F -2.7 °F 1024.9 in NE 1.6 mph 17.7 mph 65 % 0.0 in
16:17 3.2 °F -3.0 °F 1024.9 in NNW 4.8 mph 16.1 mph 64 % 0.0 in
16:22 3.1 °F -3.0 °F 1024.9 in NNE 4.8 mph 16.1 mph 64 % 0.0 in
16:27 3.1 °F -2.8 °F 1025.3 in NE 8.0 mph 12.9 mph 65 % 0.0 in
16:32 3.0 °F -3.1 °F 1024.9 in NNW 4.8 mph 12.9 mph 64 % 0.0 in
16:37 2.9 °F -3.0 °F 1025.3 in NNW 3.2 mph 16.1 mph 65 % 0.0 in
16:42 2.8 °F -3.1 °F 1025.3 in NNW 4.8 mph 16.1 mph 65 % 0.0 in
16:47 2.8 °F -2.9 °F 1025.3 in NNW 9.7 mph 16.1 mph 66 % 0.0 in
16:52 2.7 °F -3.0 °F 1025.3 in NNE 1.6 mph 16.1 mph 66 % 0.0 in
17:02 2.5 °F -3.2 °F 1025.3 in North 4.8 mph 17.7 mph 66 % 0.0 in
17:07 2.3 °F -3.2 °F 1025.3 in NNE 4.8 mph 12.9 mph 67 % 0.0 in
17:12 2.2 °F -3.1 °F 1025.3 in NNW 11.3 mph 12.9 mph 68 % 0.0 in
17:17 2.1 °F -3.2 °F 1025.3 in NNW 3.2 mph 16.1 mph 68 % 0.0 in
17:22 1.9 °F -3.4 °F 1025.3 in NNE 11.3 mph 16.1 mph 68 % 0.0 in
17:27 1.8 °F -3.3 °F 1025.3 in North 6.4 mph 16.1 mph 69 % 0.0 in
17:32 1.6 °F -3.3 °F 1025.3 in NNW 11.3 mph 16.1 mph 70 % 0.0 in
17:37 1.4 °F -3.5 °F 1025.3 in North 4.8 mph 12.9 mph 70 % 0.0 in
17:42 1.3 °F -3.4 °F 1025.3 in NNW 6.4 mph 12.9 mph 71 % 0.0 in
17:47 1.1 °F -3.4 °F 1025.3 in NNW 3.2 mph 12.9 mph 72 % 0.0 in
17:52 0.9 °F -3.4 °F 1025.3 in NNW 9.7 mph 12.9 mph 73 % 0.0 in
17:57 0.9 °F -3.4 °F 1025.3 in NW 3.2 mph 11.3 mph 73 % 0.0 in
18:02 0.7 °F -3.6 °F 1025.3 in North 4.8 mph 11.3 mph 73 % 0.0 in
18:07 0.6 °F -3.5 °F 1025.3 in NNW 1.6 mph 11.3 mph 74 % 0.0 in
18:12 0.6 °F -3.5 °F 1025.6 in NNW 6.4 mph 11.3 mph 74 % 0.0 in
18:17 0.4 °F -3.7 °F 1025.3 in NNE 3.2 mph 11.3 mph 74 % 0.0 in
18:22 0.3 °F -3.6 °F 1025.6 in North 9.7 mph 11.3 mph 75 % 0.0 in
18:27 0.3 °F -3.6 °F 1025.6 in NW 3.2 mph 11.3 mph 75 % 0.0 in
18:32 0.2 °F -3.7 °F 1025.6 in North 3.2 mph 14.5 mph 75 % 0.0 in
18:37 0.1 °F -3.6 °F 1025.6 in NE 6.4 mph 14.5 mph 76 % 0.0 in
18:42 -0.1 °F -3.8 °F 1025.6 in NNE 4.8 mph 14.5 mph 76 % 0.0 in
18:52 -0.2 °F -3.7 °F 1025.6 in Calm   17.7 mph 77 % 0.0 in
18:57 -0.3 °F -3.8 °F 1025.6 in NE 1.6 mph 17.7 mph 77 % 0.0 in
19:02 -0.3 °F -3.7 °F 1026.0 in North 4.8 mph 17.7 mph 78 % 0.0 in
19:07 -0.4 °F -3.8 °F 1026.0 in NNE 6.4 mph 11.3 mph 78 % 0.0 in
19:12 -0.5 °F -3.9 °F 1026.0 in NNW 1.6 mph 11.3 mph 78 % 0.0 in
19:17 -0.5 °F -3.9 °F 1026.0 in NE 6.4 mph 14.5 mph 78 % 0.0 in
19:22 -0.6 °F -3.8 °F 1026.0 in NE 9.7 mph 16.1 mph 79 % 0.0 in
19:32 -0.7 °F -3.7 °F 1026.0 in NNW 4.8 mph 16.1 mph 80 % 0.0 in
19:37 -0.8 °F -3.8 °F 1026.0 in NNW 4.8 mph 16.1 mph 80 % 0.0 in
19:42 -0.8 °F -3.8 °F 1026.0 in NE 3.2 mph 16.1 mph 80 % 0.0 in
19:47 -0.8 °F -3.8 °F 1026.0 in NE 4.8 mph 14.5 mph 80 % 0.0 in
19:52 -0.9 °F -3.7 °F 1026.0 in NNE 6.4 mph 14.5 mph 81 % 0.0 in
19:57 -1.0 °F -3.8 °F 1026.0 in North 6.4 mph 14.5 mph 81 % 0.0 in
20:02 -1.1 °F -3.9 °F 1026.0 in NNE 6.4 mph 14.5 mph 81 % 0.0 in
20:12 -1.2 °F -3.9 °F 1026.0 in North 6.4 mph 14.5 mph 82 % 0.0 in
20:17 -1.3 °F -4.0 °F 1026.0 in North 9.7 mph 16.1 mph 82 % 0.0 in
20:22 -1.3 °F -4.0 °F 1026.0 in NE 1.6 mph 16.1 mph 82 % 0.0 in
20:27 -1.3 °F -4.0 °F 1026.0 in North 6.4 mph 16.1 mph 82 % 0.0 in
20:32 -1.4 °F -4.1 °F 1026.0 in NE 1.6 mph 16.1 mph 82 % 0.0 in
20:37 -1.4 °F -4.1 °F 1026.0 in NNW 4.8 mph 12.9 mph 82 % 0.0 in
20:42 -1.6 °F -4.1 °F 1026.0 in NNE 8.0 mph 12.9 mph 83 % 0.0 in
20:47 -1.6 °F -4.1 °F 1026.0 in NNW 4.8 mph 12.9 mph 83 % 0.0 in
20:52 -1.7 °F -4.2 °F 1026.0 in NE 6.4 mph 12.9 mph 83 % 0.0 in
20:57 -1.7 °F -4.2 °F 1026.0 in North 3.2 mph 12.9 mph 83 % 0.0 in
21:02 -1.8 °F -4.1 °F 1026.0 in NNW 6.4 mph 12.9 mph 84 % 0.0 in
21:07 -1.8 °F -4.1 °F 1026.0 in WNW 1.6 mph 12.9 mph 84 % 0.0 in
21:12 -1.9 °F -4.2 °F 1026.0 in NNW 4.8 mph 12.9 mph 84 % 0.0 in
21:17 -1.9 °F -4.2 °F 1026.0 in Calm   12.9 mph 84 % 0.0 in
21:22 -1.9 °F -4.1 °F 1026.0 in North 3.2 mph 14.5 mph 85 % 0.0 in
21:27 -1.9 °F -4.1 °F 1026.0 in NE 4.8 mph 14.5 mph 85 % 0.0 in
21:32 -2.0 °F -4.2 °F 1026.3 in NNW 6.4 mph 14.5 mph 85 % 0.0 in
21:37 -2.1 °F -4.3 °F 1026.3 in NNW 1.6 mph 16.1 mph 85 % 0.0 in
21:42 -2.1 °F -4.1 °F 1026.3 in NNE 8.0 mph 16.1 mph 86 % 0.0 in
21:47 -2.1 °F -4.1 °F 1026.3 in NNE 9.7 mph 12.9 mph 86 % 0.0 in
21:52 -2.2 °F -4.2 °F 1026.0 in North 4.8 mph 12.9 mph 86 % 0.0 in
21:57 -2.2 °F -4.1 °F 1026.0 in NNW 4.8 mph 12.9 mph 87 % 0.0 in
22:02 -2.1 °F -4.0 °F 1026.0 in Calm   12.9 mph 87 % 0.0 in
22:12 -2.2 °F -4.1 °F 1026.0 in NNW 6.4 mph 9.7 mph 87 % 0.0 in
22:17 -2.1 °F -4.0 °F 1026.3 in NNW 6.4 mph 11.3 mph 87 % 0.0 in
22:22 -2.2 °F -4.1 °F 1026.3 in NNW 4.8 mph 11.3 mph 87 % 0.0 in
22:27 -2.2 °F -4.2 °F 1026.3 in NNE 6.4 mph 12.9 mph 86 % 0.0 in
22:32 -2.2 °F -4.1 °F 1026.3 in NNW 1.6 mph 12.9 mph 87 % 0.0 in
22:37 -2.2 °F -4.1 °F 1026.3 in NNW 3.2 mph 11.3 mph 87 % 0.0 in
22:42 -2.3 °F -4.2 °F 1026.3 in NNW 3.2 mph 11.3 mph 87 % 0.0 in
22:47 -2.4 °F -4.1 °F 1026.3 in NW 4.8 mph 14.5 mph 88 % 0.0 in
22:52 -2.4 °F -4.1 °F 1026.3 in NNW 8.0 mph 14.5 mph 88 % 0.0 in
22:57 -2.5 °F -4.2 °F 1026.3 in WNW 4.8 mph 14.5 mph 88 % 0.0 in
23:02 -2.6 °F -4.2 °F 1026.3 in North 6.4 mph 14.5 mph 89 % 0.0 in
23:07 -2.6 °F -4.2 °F 1026.6 in NNE 4.8 mph 14.5 mph 89 % 0.0 in
23:17 -2.7 °F -4.1 °F 1026.6 in NNW 1.6 mph 17.7 mph 90 % 0.0 in
23:27 -2.8 °F -4.2 °F 1026.6 in NNE 4.8 mph 17.7 mph 90 % 0.0 in
23:32 -2.8 °F -4.2 °F 1026.6 in North 3.2 mph 17.7 mph 90 % 0.0 in
23:37 -2.8 °F -4.1 °F 1026.6 in NNE 6.4 mph 14.5 mph 91 % 0.0 in
23:42 -2.8 °F -4.1 °F 1026.6 in North 8.0 mph 14.5 mph 91 % 0.0 in
23:47 -2.8 °F -4.1 °F 1026.6 in NNE 6.4 mph 16.1 mph 91 % 0.0 in
23:52 -2.8 °F -4.1 °F 1026.6 in NNW 6.4 mph 16.1 mph 91 % 0.0 in
23:57 -2.9 °F -4.2 °F 1026.6 in NNE 3.2 mph 16.1 mph 91 % 0.0 in
Meteo18
Compliments of Weather Underground - 4 mb

Script developed by  Jim McMurry - jmcmurry@mwt.net Adapted for the template by  Wim van der Kuil - Leuven-Template.eu

You find our weather info also at:

European Weather Network

Weather Underground

Equipment we use:

Weather-station
Davis Vue

Weather-program
Meteobridge

Weather-server
Raspberry PI 2 B+

Provider
1 and 1

Davis Vue

Meteobridge

Raspberry PI 2 B+

1 and 1